Time;durP1;ratioP1;P1;durP2;ratioP2;P2;SDS_P1;SDS_P2;PMS_P1;PMS_P2;Temp;Humidity;BMP_temperature;BMP_pressure;BME280_temperature;BME280_humidity;BME280_pressure;Samples;Min_cycle;Max_cycle;Signal;HPM_P1;HPM_P2
2021/05/28 00:04:08;;;;;;;6.57;4.07;;;;;;;12.27;71.44;100706.69;10293691;28;20054;-58
2021/05/28 00:09:09;;;;;;;4.35;3.72;;;;;;;12.31;71.04;100710.81;10299816;28;20140;-61
2021/05/28 00:14:11;;;;;;;4.22;3.80;;;;;;;12.34;71.07;100710.56;10303678;28;20078;-59
2021/05/28 00:19:13;;;;;;;5.90;3.80;;;;;;;12.32;69.92;100717.81;10300596;28;20082;-56
2021/05/28 00:24:14;;;;;;;4.43;3.45;;;;;;;12.23;70.55;100729.25;10299554;28;20050;-57
2021/05/28 00:29:16;;;;;;;4.82;4.10;;;;;;;11.94;71.79;100727.06;10299474;28;20124;-57
2021/05/28 00:34:17;;;;;;;4.05;3.63;;;;;;;11.85;70.67;100736.63;10297727;28;20623;-61
2021/05/28 00:39:19;;;;;;;5.45;4.20;;;;;;;11.80;70.58;100737.94;10305024;28;20120;-57
2021/05/28 00:44:27;;;;;;;4.88;4.13;;;;;;;11.76;71.11;100741.84;10303226;28;20050;-59
2021/05/28 00:49:29;;;;;;;5.75;4.40;;;;;;;11.88;72.81;100714.19;10297021;28;20070;-58
2021/05/28 00:54:31;;;;;;;4.55;3.80;;;;;;;12.03;71.42;100725.50;10300770;28;20089;-57
2021/05/28 00:59:32;;;;;;;6.13;4.30;;;;;;;12.21;72.13;100739.22;10275430;28;20070;-57
2021/05/28 01:04:34;;;;;;;4.45;4.00;;;;;;;12.29;71.93;100734.09;10281839;28;20173;-61
2021/05/28 01:09:35;;;;;;;7.57;4.65;;;;;;;12.29;72.21;100730.59;10287457;28;20508;-59
2021/05/28 01:14:37;;;;;;;4.93;3.85;;;;;;;12.26;72.17;100723.66;10280782;28;20141;-57
2021/05/28 01:19:38;;;;;;;6.18;4.70;;;;;;;12.33;72.21;100735.56;10298210;28;20563;-56
2021/05/28 01:24:40;;;;;;;5.85;4.68;;;;;;;12.32;72.27;100736.50;10298326;28;20078;-58
2021/05/28 01:29:41;;;;;;;5.82;4.93;;;;;;;12.17;72.83;100745.75;10291574;28;20062;-57
2021/05/28 01:34:43;;;;;;;6.38;5.68;;;;;;;12.20;72.21;100743.72;10299507;28;20108;-60
2021/05/28 01:39:49;;;;;;;8.52;5.57;;;;;;;12.17;72.89;100745.75;10277050;28;20429;-59
2021/05/28 01:44:53;;;;;;;7.82;4.88;;;;;;;12.28;72.62;100751.09;10287383;28;20088;-59
2021/05/28 01:49:54;;;;;;;5.95;4.45;;;;;;;12.22;72.89;100730.25;10296114;28;20116;-58
2021/05/28 01:54:56;;;;;;;6.72;5.30;;;;;;;12.29;72.76;100747.44;10295369;28;20124;-59
2021/05/28 01:59:58;;;;;;;5.75;5.10;;;;;;;12.18;73.03;100731.44;10290212;28;20475;-58
2021/05/28 02:05:00;;;;;;;6.57;5.82;;;;;;;12.18;72.44;100744.78;10289141;28;20066;-60
2021/05/28 02:10:01;;;;;;;6.32;5.63;;;;;;;12.13;73.90;100734.47;10297180;28;20054;-58
2021/05/28 02:15:04;;;;;;;7.20;6.28;;;;;;;12.10;74.96;100745.41;10297277;28;20153;-59
2021/05/28 02:20:06;;;;;;;5.50;5.00;;;;;;;12.06;75.43;100733.28;10292858;28;20125;-60
2021/05/28 02:25:08;;;;;;;7.97;5.63;;;;;;;12.15;75.70;100737.03;10293170;28;20461;-58
2021/05/28 02:30:11;;;;;;;7.72;6.13;;;;;;;12.12;74.87;100734.59;10288641;28;20058;-59
2021/05/28 02:35:15;;;;;;;7.20;6.13;;;;;;;12.19;74.97;100757.19;10276082;28;20110;-57
2021/05/28 02:40:17;;;;;;;7.83;6.93;;;;;;;12.14;75.07;100746.00;10295997;28;20046;-59
2021/05/28 02:45:19;;;;;;;7.20;6.22;;;;;;;12.24;75.50;100760.31;10300571;28;20312;-57
2021/05/28 02:50:20;;;;;;;8.93;6.63;;;;;;;12.22;75.18;100764.06;10300855;28;20116;-61
2021/05/28 02:55:21;;;;;;;8.25;6.18;;;;;;;12.20;74.93;100773.06;10280759;28;20078;-56
2021/05/28 03:00:24;;;;;;;8.25;6.45;;;;;;;12.22;74.98;100775.63;10295127;28;20156;-59
2021/05/28 03:05:25;;;;;;;8.88;7.43;;;;;;;12.23;74.30;100777.28;10283423;28;20127;-61
2021/05/28 03:10:26;;;;;;;9.65;7.43;;;;;;;12.23;73.92;100777.28;10284522;28;20049;-60
2021/05/28 03:15:28;;;;;;;8.23;6.65;;;;;;;12.29;73.46;100782.13;10296097;28;20757;-59
2021/05/28 03:20:36;;;;;;;8.52;7.47;;;;;;;12.22;74.21;100775.63;10291610;28;20129;-56
2021/05/28 03:25:38;;;;;;;8.73;7.93;;;;;;;12.22;73.47;100780.09;10274085;28;20132;-60
2021/05/28 03:30:40;;;;;;;10.40;8.10;;;;;;;12.20;73.38;100785.53;10274185;28;20073;-58
2021/05/28 03:35:41;;;;;;;9.68;7.65;;;;;;;12.24;73.32;100786.16;10288171;28;20305;-60
2021/05/28 03:40:42;;;;;;;9.48;8.07;;;;;;;12.11;73.51;100770.25;10287441;28;20100;-58
2021/05/28 03:45:44;;;;;;;11.43;8.77;;;;;;;12.21;73.53;100795.25;10296316;28;20046;-59
2021/05/28 03:50:46;;;;;;;9.52;8.57;;;;;;;12.22;73.93;100796.97;10299552;28;20137;-56
2021/05/28 03:55:47;;;;;;;12.95;8.20;;;;;;;12.16;73.57;100776.06;10295635;28;20109;-57
2021/05/28 04:00:49;;;;;;;13.10;9.38;;;;;;;12.27;74.64;100792.09;10292496;28;20050;-61
2021/05/28 04:05:50;;;;;;;10.82;7.93;;;;;;;12.28;73.76;100787.59;10282547;28;20085;-55
2021/05/28 04:10:51;;;;;;;13.98;8.77;;;;;;;12.40;74.49;100788.44;10292397;28;20134;-59
2021/05/28 04:15:53;;;;;;;8.70;7.80;;;;;;;12.29;73.99;100787.47;10276970;28;20054;-58
2021/05/28 04:20:54;;;;;;;8.15;7.35;;;;;;;12.37;74.22;100792.22;10285652;28;20066;-60
2021/05/28 04:25:56;;;;;;;11.23;8.52;;;;;;;12.15;74.09;100758.38;10290045;28;20156;-59
2021/05/28 04:30:58;;;;;;;9.50;8.32;;;;;;;12.43;73.44;100801.56;10294020;28;20070;-56
2021/05/28 04:35:59;;;;;;;8.88;7.97;;;;;;;12.34;72.70;100779.09;10294044;28;20081;-60
2021/05/28 04:41:01;;;;;;;11.05;8.35;;;;;;;12.38;73.31;100792.13;10298697;28;20050;-58
2021/05/28 04:46:02;;;;;;;11.80;8.60;;;;;;;12.52;73.30;100819.50;10296051;28;20464;-60
2021/05/28 04:51:04;;;;;;;9.35;7.75;;;;;;;12.58;72.24;100826.19;10300001;28;20047;-56
2021/05/28 04:56:05;;;;;;;10.38;9.18;;;;;;;12.63;72.60;100826.69;10302834;28;20730;-56
2021/05/28 05:01:07;;;;;;;9.75;7.95;;;;;;;12.60;72.35;100825.09;10302956;28;20491;-62
2021/05/28 05:06:08;;;;;;;9.40;8.45;;;;;;;12.75;71.27;100835.53;10296367;28;20079;-57
2021/05/28 05:11:10;;;;;;;9.80;8.80;;;;;;;12.65;70.84;100838.91;10279254;28;20101;-61
2021/05/28 05:16:12;;;;;;;12.82;8.30;;;;;;;12.43;71.17;100842.47;10301205;28;20133;-55
2021/05/28 05:21:13;;;;;;;9.82;8.82;;;;;;;12.48;72.28;100863.47;10288397;28;20065;-56
2021/05/28 05:26:15;;;;;;;10.20;8.25;;;;;;;12.63;71.95;100850.72;10301767;28;20137;-56
2021/05/28 05:31:16;;;;;;;8.73;7.68;;;;;;;12.78;72.20;100862.84;10289303;28;20070;-56
2021/05/28 05:36:17;;;;;;;9.55;8.50;;;;;;;12.89;71.29;100856.63;10303007;28;20104;-57
2021/05/28 05:41:19;;;;;;;8.90;7.75;;;;;;;12.99;70.59;100862.94;10298305;28;20618;-57
2021/05/28 05:46:20;;;;;;;9.48;7.93;;;;;;;13.08;69.89;100854.16;10303253;28;20113;-59
2021/05/28 05:51:22;;;;;;;8.88;7.97;;;;;;;12.82;69.09;100858.09;10293395;28;20054;-60
2021/05/28 05:56:25;;;;;;;7.38;6.68;;;;;;;13.04;70.47;100858.03;10303498;28;20449;-59
2021/05/28 06:01:26;;;;;;;7.25;6.55;;;;;;;13.44;68.78;100867.34;10287703;28;20141;-58
2021/05/28 06:06:28;;;;;;;7.63;6.82;;;;;;;13.26;67.74;100881.22;10282592;28;20133;-59
2021/05/28 06:11:30;;;;;;;8.60;6.22;;;;;;;13.13;69.20;100885.00;10285368;28;20128;-58
2021/05/28 06:16:31;;;;;;;11.07;6.38;;;;;;;13.42;68.42;100872.81;10284320;28;20065;-59
2021/05/28 06:21:33;;;;;;;8.07;5.50;;;;;;;13.77;68.56;100892.25;10278832;28;20062;-58
2021/05/28 06:26:35;;;;;;;8.57;5.40;;;;;;;13.88;66.75;100884.16;10290329;28;20054;-56
2021/05/28 06:31:37;;;;;;;8.75;5.40;;;;;;;13.97;65.86;100886.03;10288168;28;20058;-61
2021/05/28 06:36:39;;;;;;;4.90;4.07;;;;;;;13.56;66.23;100892.22;10278280;28;20050;-59
2021/05/28 06:41:42;;;;;;;7.75;5.00;;;;;;;13.44;68.10;100892.25;10275758;28;20303;-58
2021/05/28 06:46:44;;;;;;;7.30;4.27;;;;;;;13.78;67.92;100905.50;10270677;28;20571;-60
2021/05/28 06:51:47;;;;;;;6.65;4.78;;;;;;;14.12;66.43;100896.44;10281193;28;20046;-56
2021/05/28 06:56:48;;;;;;;4.95;4.00;;;;;;;14.29;66.42;100903.03;10281448;28;20117;-56
2021/05/28 07:01:50;;;;;;;5.72;3.97;;;;;;;14.57;65.94;100896.13;10282750;28;20056;-58
2021/05/28 07:06:52;;;;;;;8.38;3.92;;;;;;;14.76;65.22;100916.84;10271971;28;20583;-56
2021/05/28 07:11:54;;;;;;;3.67;2.78;;;;;;;15.00;63.78;100913.00;10277843;28;20065;-56
2021/05/28 07:16:55;;;;;;;6.78;4.03;;;;;;;15.05;62.11;100916.09;10277551;28;20500;-58
2021/05/28 07:21:56;;;;;;;7.30;3.50;;;;;;;14.98;62.33;100918.47;10277800;28;20100;-55
2021/05/28 07:26:58;;;;;;;4.80;2.35;;;;;;;15.07;62.46;100924.84;10280232;28;20099;-56
2021/05/28 07:32:00;;;;;;;4.82;2.67;;;;;;;15.23;60.64;100913.59;10277346;28;20513;-59
2021/05/28 07:37:02;;;;;;;4.03;2.20;;;;;;;15.64;60.23;100929.63;10282375;28;20158;-57
2021/05/28 07:42:04;;;;;;;5.28;1.80;;;;;;;15.71;59.61;100922.72;10280450;28;20105;-58
2021/05/28 07:47:06;;;;;;;2.53;1.90;;;;;;;15.83;55.95;100926.97;10265040;28;20050;-55
2021/05/28 07:52:08;;;;;;;2.28;1.90;;;;;;;15.86;58.72;100932.06;10277670;28;20054;-58
2021/05/28 07:57:10;;;;;;;3.60;2.00;;;;;;;16.32;56.75;100920.69;10275969;28;20054;-58
2021/05/28 08:02:11;;;;;;;3.65;1.60;;;;;;;16.90;55.01;100935.81;10276397;28;20049;-58
2021/05/28 08:07:13;;;;;;;3.38;1.77;;;;;;;17.05;54.37;100934.31;10277787;28;20112;-57
2021/05/28 08:12:16;;;;;;;3.35;1.73;;;;;;;17.12;52.24;100913.06;10278021;28;20058;-59
2021/05/28 08:17:18;;;;;;;3.53;1.98;;;;;;;17.27;52.67;100927.69;10274434;28;20136;-59
2021/05/28 08:22:19;;;;;;;3.97;1.65;;;;;;;17.27;51.69;100921.47;10280142;28;20058;-56
2021/05/28 08:27:21;;;;;;;3.90;1.60;;;;;;;17.05;51.65;100918.19;10278422;28;20050;-59
2021/05/28 08:32:22;;;;;;;3.75;1.60;;;;;;;17.30;52.79;100915.81;10284295;28;20112;-60
2021/05/28 08:37:24;;;;;;;3.42;2.00;;;;;;;17.33;50.49;100918.19;10290799;28;20086;-57
2021/05/28 08:42:28;;;;;;;2.97;1.90;;;;;;;17.19;52.58;100911.47;10286628;28;20066;-57
2021/05/28 08:47:30;;;;;;;3.08;1.17;;;;;;;17.34;51.47;100919.03;10287787;28;20209;-59
2021/05/28 08:52:31;;;;;;;2.38;1.77;;;;;;;17.58;49.55;100913.03;10284387;28;20468;-60
2021/05/28 08:57:33;;;;;;;2.22;1.33;;;;;;;17.75;50.75;100914.06;10283677;28;20063;-59
2021/05/28 09:02:40;;;;;;;2.63;1.25;;;;;;;17.69;50.43;100907.44;10268330;28;20050;-59
2021/05/28 09:07:52;;;;;;;3.97;1.50;;;;;;;18.14;50.21;100916.44;10287545;28;20069;-56
2021/05/28 09:13:04;;;;;;;1.50;1.30;;;;;;;18.18;48.51;100912.44;10271831;28;20054;-58
2021/05/28 09:18:06;;;;;;;2.40;1.80;;;;;;;18.25;47.95;100909.94;10271275;28;20145;-56
2021/05/28 09:23:19;;;;;;;2.13;1.30;;;;;;;18.46;49.89;100914.97;10284711;28;20860;-55
2021/05/28 09:28:22;;;;;;;2.80;1.15;;;;;;;18.36;47.04;100921.31;10269960;28;20065;-58
2021/05/28 09:33:25;;;;;;;1.92;1.55;;;;;;;18.07;47.53;100891.13;10269820;28;20365;-56
2021/05/28 09:38:26;;;;;;;2.33;1.30;;;;;;;18.57;48.78;100909.31;10285454;28;20054;-59
2021/05/28 09:43:28;;;;;;;2.35;1.20;;;;;;;18.75;48.64;100911.06;10281683;28;20046;-57
2021/05/28 09:48:31;;;;;;;2.85;1.23;;;;;;;19.01;48.68;100911.91;10270491;28;20050;-56
2021/05/28 09:53:44;;;;;;;2.03;1.50;;;;;;;19.49;46.63;100908.69;10282421;28;20054;-59
2021/05/28 09:59:01;;;;;;;1.13;0.83;;;;;;;19.00;45.05;100904.81;10279136;28;20535;-62
2021/05/28 10:04:04;;;;;;;0.90;0.55;;;;;;;19.53;44.43;100893.81;10282288;28;20050;-56
2021/05/28 10:09:10;;;;;;;0.93;0.50;;;;;;;20.52;38.85;100901.91;10282430;28;20791;-56
2021/05/28 10:14:12;;;;;;;3.65;1.08;;;;;;;21.04;40.33;100890.56;10279800;28;20057;-58
2021/05/28 10:19:14;;;;;;;1.10;0.50;;;;;;;21.19;40.68;100890.66;10280506;28;20567;-55
2021/05/28 10:24:16;;;;;;;1.50;0.57;;;;;;;21.41;39.07;100888.16;10279221;28;20133;-58
2021/05/28 10:29:24;;;;;;;1.63;0.50;;;;;;;21.00;40.00;100881.09;10281594;28;20050;-60
2021/05/28 10:34:30;;;;;;;2.33;0.90;;;;;;;21.13;38.11;100886.78;10279567;28;20042;-56
2021/05/28 10:39:31;;;;;;;1.98;0.50;;;;;;;20.98;40.13;100888.56;10283124;28;20061;-61
2021/05/28 10:44:40;;;;;;;2.45;0.80;;;;;;;21.08;39.74;100886.50;10294626;28;20603;-57
2021/05/28 10:49:52;;;;;;;2.15;0.30;;;;;;;21.50;36.11;100882.53;10263106;28;20083;-58
2021/05/28 10:55:09;;;;;;;1.80;0.50;;;;;;;21.67;36.77;100877.00;10293158;28;20627;-59
2021/05/28 11:00:21;;;;;;;0.60;0.20;;;;;;;21.21;34.65;100866.13;10295668;28;20666;-57
2021/05/28 11:05:41;;;;;;;0.90;0.60;;;;;;;20.89;35.98;100882.34;10291192;28;20037;-58
2021/05/28 11:10:42;;;;;;;1.20;0.50;;;;;;;21.16;37.59;100875.59;10299316;28;20069;-57
2021/05/28 11:15:56;;;;;;;1.30;0.50;;;;;;;21.63;36.86;100864.84;10301968;28;20768;-59
2021/05/28 11:21:20;;;;;;;1.83;0.50;;;;;;;21.64;35.88;100861.13;10275742;28;20129;-59
2021/05/28 11:26:27;;;;;;;0.93;0.30;;;;;;;22.00;34.09;100847.75;10292364;28;20050;-60
2021/05/28 11:31:30;;;;;;;1.73;0.25;;;;;;;22.49;34.01;100845.56;10277322;28;20389;-57
2021/05/28 11:36:32;;;;;;;0.93;0.45;;;;;;;22.21;34.97;100847.03;10295683;28;20050;-60
2021/05/28 11:41:48;;;;;;;1.00;0.50;;;;;;;22.09;34.74;100837.66;10272458;28;20050;-60
2021/05/28 11:46:51;;;;;;;0.85;0.50;;;;;;;22.40;34.85;100834.00;10281965;28;20521;-56
2021/05/28 11:52:03;;;;;;;0.70;0.20;;;;;;;22.53;34.92;100822.47;10282035;28;20050;-56
2021/05/28 11:57:07;;;;;;;2.17;0.77;;;;;;;22.20;34.96;100833.66;10283178;28;20049;-58
2021/05/28 12:02:08;;;;;;;1.23;0.40;;;;;;;22.08;36.88;100827.84;10276597;28;20046;-55
2021/05/28 12:07:10;;;;;;;1.75;0.60;;;;;;;22.18;35.28;100835.72;10289677;28;20161;-57
2021/05/28 12:12:11;;;;;;;1.13;0.60;;;;;;;22.33;35.31;100830.34;10288806;28;20535;-58
2021/05/28 12:17:29;;;;;;;1.75;0.40;;;;;;;22.27;33.50;100829.19;10290398;28;20055;-57
2021/05/28 12:22:31;;;;;;;1.15;0.30;;;;;;;22.17;34.29;100834.91;10289047;28;20054;-57
2021/05/28 12:27:32;;;;;;;2.28;0.60;;;;;;;21.74;34.90;100802.13;10288313;28;20054;-56
2021/05/28 12:32:34;;;;;;;1.60;0.50;;;;;;;22.19;34.56;100823.84;10289665;28;20622;-59
2021/05/28 12:37:35;;;;;;;0.85;0.70;;;;;;;22.55;33.54;100823.97;10287741;28;20081;-58
2021/05/28 12:42:38;;;;;;;0.90;0.52;;;;;;;22.75;34.57;100820.66;10295460;28;20053;-56
2021/05/28 12:47:45;;;;;;;1.63;0.85;;;;;;;22.97;34.55;100815.28;10300470;28;20121;-61
2021/05/28 12:52:55;;;;;;;1.33;0.50;;;;;;;22.90;33.47;100802.47;10303637;28;20054;-58
2021/05/28 12:57:56;;;;;;;1.10;0.80;;;;;;;23.04;33.87;100797.19;10291427;28;20038;-58
2021/05/28 13:02:58;;;;;;;0.77;0.38;;;;;;;22.90;32.12;100794.31;10298940;28;20045;-59
2021/05/28 13:08:00;;;;;;;2.60;0.50;;;;;;;22.51;31.42;100797.41;10294806;28;20062;-56
2021/05/28 13:13:23;;;;;;;1.23;0.30;;;;;;;22.38;31.05;100796.22;10306248;28;22072;-56
2021/05/28 13:18:42;;;;;;;0.95;0.40;;;;;;;22.34;31.17;100792.19;10304294;28;20054;-56
2021/05/28 13:23:44;;;;;;;2.00;0.77;;;;;;;22.44;31.05;100789.16;10300666;28;20046;-61
2021/05/28 13:28:46;;;;;;;1.60;0.60;;;;;;;22.66;32.02;100781.94;10285184;28;20054;-59
2021/05/28 13:33:53;;;;;;;3.00;0.60;;;;;;;22.36;32.82;100786.56;10293115;28;20058;-59
2021/05/28 13:38:58;;;;;;;1.63;0.50;;;;;;;22.34;32.75;100775.91;10296457;28;20050;-58
2021/05/28 13:44:03;;;;;;;1.75;0.60;;;;;;;22.10;32.59;100770.72;10284856;28;21935;-57
2021/05/28 13:49:06;;;;;;;1.60;0.87;;;;;;;21.73;33.55;100765.19;10287655;28;20077;-59
2021/05/28 13:54:08;;;;;;;1.95;0.80;;;;;;;21.74;33.77;100764.19;10288135;28;20419;-57
2021/05/28 13:59:09;;;;;;;0.73;0.40;;;;;;;21.54;31.85;100758.44;10289970;28;20050;-56
2021/05/28 14:04:11;;;;;;;1.20;0.50;;;;;;;21.47;32.80;100755.59;10288734;28;20428;-59
2021/05/28 14:09:12;;;;;;;0.70;0.40;;;;;;;21.74;33.75;100756.06;10287534;28;20069;-59
2021/05/28 14:14:14;;;;;;;2.72;0.60;;;;;;;21.57;34.54;100751.81;10275351;28;22261;-54
2021/05/28 14:19:16;;;;;;;1.13;0.55;;;;;;;21.51;35.01;100746.13;10286959;28;20473;-58
2021/05/28 14:24:18;;;;;;;0.98;0.55;;;;;;;21.33;34.90;100761.78;10286960;28;20054;-56
2021/05/28 14:29:19;;;;;;;1.52;0.70;;;;;;;21.02;34.53;100750.03;10285408;28;21099;-55
2021/05/28 14:34:21;;;;;;;1.58;0.57;;;;;;;21.09;33.53;100752.88;10284534;28;20529;-55
2021/05/28 14:39:22;;;;;;;1.35;0.45;;;;;;;21.18;33.21;100738.25;10288356;28;20101;-59
2021/05/28 14:44:24;;;;;;;1.02;0.50;;;;;;;21.15;33.59;100749.44;10292107;28;20062;-55
2021/05/28 14:49:26;;;;;;;0.77;0.55;;;;;;;21.12;33.62;100744.38;10292897;28;20058;-56
2021/05/28 14:54:27;;;;;;;0.93;0.63;;;;;;;21.18;34.08;100738.25;10280031;28;20073;-57
2021/05/28 14:59:29;;;;;;;2.50;0.85;;;;;;;21.17;33.93;100741.97;10295758;28;20054;-56
2021/05/28 15:04:30;;;;;;;1.00;0.50;;;;;;;21.25;34.44;100742.94;10294161;28;20054;-57
2021/05/28 15:09:32;;;;;;;1.25;1.00;;;;;;;21.22;33.96;100727.03;10293873;28;20409;-58
2021/05/28 15:14:34;;;;;;;2.33;0.52;;;;;;;21.00;33.70;100733.13;10300924;28;20415;-56
2021/05/28 15:19:35;;;;;;;2.03;0.65;;;;;;;20.90;33.66;100729.00;10298833;28;20210;-59
2021/05/28 15:24:39;;;;;;;;;;;;;;;20.62;34.35;100735.69;10291429;28;20058;-55
2021/05/28 15:29:45;;;;;;;1.42;0.80;;;;;;;20.59;35.01;100735.22;10292091;28;20318;-59
2021/05/28 15:34:46;;;;;;;1.58;0.57;;;;;;;20.51;35.23;100719.03;10296089;28;20073;-60
2021/05/28 15:39:48;;;;;;;2.25;0.70;;;;;;;20.46;35.33;100728.53;10292290;28;20049;-58
2021/05/28 15:44:49;;;;;;;1.25;0.73;;;;;;;20.04;36.29;100718.06;10299145;28;20050;-58
2021/05/28 15:49:52;;;;;;;1.73;1.00;;;;;;;19.93;36.01;100712.00;10299215;28;20061;-57
2021/05/28 15:54:53;;;;;;;2.65;0.80;;;;;;;19.76;36.55;100711.19;10298196;28;20184;-55
2021/05/28 15:59:55;;;;;;;1.95;0.90;;;;;;;19.60;36.56;100700.41;10297426;28;20062;-54
2021/05/28 16:04:58;;;;;;;1.45;0.70;;;;;;;19.67;35.85;100712.22;10291063;28;20080;-58
2021/05/28 16:09:59;;;;;;;3.20;1.20;;;;;;;19.56;36.01;100682.88;10288459;28;20042;-59
2021/05/28 16:15:01;;;;;;;2.13;1.20;;;;;;;19.68;36.90;100697.72;10276776;28;20050;-58
2021/05/28 16:20:04;;;;;;;3.05;1.20;;;;;;;19.63;35.97;100693.84;10299409;28;20046;-57
2021/05/28 16:25:06;;;;;;;1.73;0.70;;;;;;;19.54;36.41;100684.91;10289030;28;20054;-60
2021/05/28 16:30:10;;;;;;;1.08;0.90;;;;;;;19.62;37.19;100709.19;10278536;28;20600;-56
2021/05/28 16:35:11;;;;;;;1.58;0.73;;;;;;;19.52;36.90;100692.34;10290376;28;20392;-59
2021/05/28 16:40:14;;;;;;;1.52;0.95;;;;;;;19.42;36.52;100701.44;10289593;28;20066;-61
2021/05/28 16:45:15;;;;;;;3.78;2.00;;;;;;;19.31;36.96;100696.41;10281906;28;20120;-60
2021/05/28 16:50:17;;;;;;;3.55;1.95;;;;;;;19.14;37.30;100695.59;10281834;28;20065;-57
2021/05/28 16:55:19;;;;;;;4.40;1.55;;;;;;;19.20;37.44;100694.03;10284174;28;20074;-56
2021/05/28 17:00:22;;;;;;;3.55;2.72;;;;;;;19.23;37.78;100696.41;10285438;28;20077;-58
2021/05/28 17:05:23;;;;;;;1.05;0.75;;;;;;;19.26;37.86;100693.41;10281420;28;20062;-56
2021/05/28 17:10:26;;;;;;;4.00;1.85;;;;;;;19.27;37.51;100689.66;10270479;28;20133;-58
2021/05/28 17:15:29;;;;;;;9.05;5.63;;;;;;;19.21;37.79;100691.19;10267855;28;20523;-58
2021/05/28 17:20:31;;;;;;;2.67;2.17;;;;;;;19.07;37.27;100673.00;10272661;28;20170;-55
2021/05/28 17:25:33;;;;;;;2.03;1.17;;;;;;;19.08;38.12;100685.47;10282786;28;20065;-55
2021/05/28 17:30:35;;;;;;;3.17;1.10;;;;;;;19.03;38.74;100688.66;10278456;28;20046;-59
2021/05/28 17:35:42;;;;;;;0.85;0.70;;;;;;;19.00;39.43;100689.00;10281106;28;20065;-57
2021/05/28 17:40:43;;;;;;;1.80;1.30;;;;;;;18.95;39.57;100690.53;10284073;28;20062;-59
2021/05/28 17:45:45;;;;;;;1.40;0.68;;;;;;;18.90;39.37;100693.72;10279881;28;20133;-58
2021/05/28 17:50:46;;;;;;;1.30;0.63;;;;;;;18.85;39.49;100696.91;10264173;28;20129;-59
2021/05/28 17:55:48;;;;;;;1.70;0.88;;;;;;;18.86;39.90;100703.16;10280086;28;20053;-58
2021/05/28 18:00:49;;;;;;;1.48;0.80;;;;;;;18.86;39.74;100705.84;10281442;28;20859;-58
2021/05/28 18:05:51;;;;;;;2.45;1.42;;;;;;;18.80;39.42;100699.22;10280707;28;20663;-59
2021/05/28 18:10:52;;;;;;;1.98;1.05;;;;;;;18.71;39.68;100701.06;10280897;28;20137;-59
2021/05/28 18:15:54;;;;;;;2.55;0.60;;;;;;;18.61;39.99;100694.16;10279690;28;20532;-60
2021/05/28 18:20:56;;;;;;;1.70;0.88;;;;;;;18.49;39.80;100701.69;10281407;28;20137;-61
2021/05/28 18:25:58;;;;;;;3.08;1.17;;;;;;;18.40;41.09;100716.16;10278025;28;20516;-59
2021/05/28 18:30:59;;;;;;;2.72;1.00;;;;;;;18.22;41.38;100700.94;10268927;28;20101;-60
2021/05/28 18:36:01;;;;;;;1.35;0.88;;;;;;;18.08;41.50;100693.47;10273619;28;20054;-60
2021/05/28 18:41:03;;;;;;;3.10;1.50;;;;;;;18.01;41.55;100707.59;10282570;28;20046;-59
2021/05/28 18:46:05;;;;;;;2.30;1.50;;;;;;;17.98;41.71;100709.75;10280769;28;20109;-59
2021/05/28 18:51:09;;;;;;;1.33;1.15;;;;;;;17.93;42.51;100712.94;10279444;28;20577;-60
2021/05/28 18:56:14;;;;;;;1.10;0.80;;;;;;;17.87;43.24;100718.94;10279951;28;20615;-60
2021/05/28 19:01:16;;;;;;;3.05;1.00;;;;;;;17.79;43.04;100725.13;10278249;28;20378;-60
2021/05/28 19:06:22;;;;;;;1.80;1.20;;;;;;;17.72;43.37;100725.91;10280597;28;20046;-60
2021/05/28 19:11:24;;;;;;;1.90;1.23;;;;;;;17.62;43.76;100732.22;10266065;28;20042;-60
2021/05/28 19:16:26;;;;;;;2.22;1.27;;;;;;;17.33;44.54;100694.03;10280731;28;20245;-56
2021/05/28 19:21:29;;;;;;;2.25;1.67;;;;;;;17.45;44.82;100735.81;10276066;28;20121;-57
2021/05/28 19:26:30;;;;;;;3.05;2.55;;;;;;;17.36;45.27;100731.38;10261466;28;20180;-56
2021/05/28 19:31:32;;;;;;;4.78;2.70;;;;;;;17.25;45.44;100730.63;10277339;28;20169;-60
2021/05/28 19:36:33;;;;;;;4.63;2.53;;;;;;;17.17;46.35;100741.31;10271668;28;20161;-58
2021/05/28 19:41:36;;;;;;;3.53;2.88;;;;;;;17.07;46.10;100745.91;10289792;28;20205;-60
2021/05/28 19:46:37;;;;;;;3.20;2.67;;;;;;;16.98;46.09;100744.16;10289841;28;20105;-60
2021/05/28 19:51:39;;;;;;;3.42;2.35;;;;;;;16.93;45.25;100742.78;10291774;28;20054;-56
2021/05/28 19:56:41;;;;;;;3.50;2.40;;;;;;;16.77;46.42;100731.84;10292089;28;20077;-56
2021/05/28 20:01:42;;;;;;;4.00;2.72;;;;;;;16.82;45.69;100755.56;10276867;28;20442;-61
2021/05/28 20:06:44;;;;;;;3.90;2.38;;;;;;;16.76;46.34;100771.28;10294954;28;20073;-58
2021/05/28 20:17:07;;;;;;;5.53;2.67;;;;;;;16.59;46.63;100772.97;10269361;28;20149;-59
2021/05/28 20:22:09;;;;;;;3.63;2.80;;;;;;;16.50;47.25;100768.50;10297273;28;20072;-60
2021/05/28 20:27:11;;;;;;;3.58;2.17;;;;;;;16.34;48.91;100758.38;10273939;28;20774;-56
2021/05/28 20:32:12;;;;;;;3.40;2.03;;;;;;;16.40;49.23;100779.28;10298913;28;20112;-58
2021/05/28 20:37:14;;;;;;;2.17;1.73;;;;;;;16.34;48.18;100779.88;10281169;28;20444;-58
2021/05/28 20:42:15;;;;;;;3.20;2.90;;;;;;;16.20;48.33;100772.31;10297842;28;20118;-58
2021/05/28 20:47:17;;;;;;;4.05;3.50;;;;;;;16.10;48.74;100783.06;10275713;28;20049;-52
2021/05/28 20:52:26;;;;;;;4.22;3.60;;;;;;;15.86;49.12;100779.03;10292755;28;21079;-51
2021/05/28 21:02:55;;;;;;;4.78;2.33;;;;;;;15.97;50.24;100787.91;10299391;28;20119;-52
2021/05/28 21:07:56;;;;;;;5.03;2.40;;;;;;;15.96;50.50;100791.59;10293060;28;20050;-52
2021/05/28 21:12:58;;;;;;;3.65;2.45;;;;;;;15.92;50.60;100804.47;10290875;28;20550;-52
2021/05/28 21:18:00;;;;;;;3.92;2.40;;;;;;;15.88;50.13;100801.22;10293926;28;20130;-52
2021/05/28 21:23:02;;;;;;;5.05;2.28;;;;;;;16.02;51.90;100809.81;10294065;28;20121;-52
2021/05/28 21:28:03;;;;;;;3.30;2.03;;;;;;;16.02;52.13;100812.50;10291378;28;20133;-51
2021/05/28 21:33:07;;;;;;;3.00;2.50;;;;;;;15.93;52.47;100813.34;10294100;28;20465;-58
2021/05/28 21:38:08;;;;;;;2.97;2.65;;;;;;;15.67;53.92;100803.19;10299398;28;20129;-58
2021/05/28 21:43:09;;;;;;;5.22;3.42;;;;;;;15.47;52.92;100810.44;10285165;28;20070;-58
2021/05/28 21:48:11;;;;;;;3.13;1.95;;;;;;;15.17;53.09;100799.69;10274719;28;20054;-58
2021/05/28 21:53:13;;;;;;;3.10;1.90;;;;;;;15.11;53.41;100810.97;10291912;28;20122;-56
2021/05/28 21:58:15;;;;;;;2.95;2.00;;;;;;;14.84;53.08;100807.13;10293853;28;20341;-58
2021/05/28 22:03:17;;;;;;;1.88;1.60;;;;;;;14.84;54.43;100807.13;10269841;28;20051;-60
2021/05/28 22:08:18;;;;;;;2.55;2.10;;;;;;;14.81;53.45;100795.84;10283280;28;20112;-58
2021/05/28 22:13:20;;;;;;;2.92;1.65;;;;;;;14.85;54.01;100822.22;10293325;28;20151;-56
2021/05/28 22:18:22;;;;;;;4.75;2.58;;;;;;;14.78;54.21;100820.22;10295327;28;20112;-56
2021/05/28 22:23:24;;;;;;;2.75;1.92;;;;;;;14.69;54.96;100824.56;10299239;28;20046;-58
2021/05/28 22:28:28;;;;;;;5.00;1.90;;;;;;;14.63;54.63;100823.28;10279625;28;20058;-55
2021/05/28 22:38:54;;;;;;;;;;;;;;;14.60;55.73;100830.72;10290643;28;20054;-59
2021/05/28 22:44:05;;;;;;;2.90;2.30;;;;;;;14.49;55.04;100824.47;10285155;28;20008;-59
2021/05/28 22:49:10;;;;;;;2.33;1.90;;;;;;;14.47;55.47;100828.25;10285714;28;20070;-55
2021/05/28 22:54:13;;;;;;;3.13;2.25;;;;;;;14.40;55.46;100833.31;10292079;28;20065;-56
2021/05/28 22:59:14;;;;;;;3.63;1.98;;;;;;;14.43;55.79;100827.69;10288395;28;20104;-57
2021/05/28 23:04:16;;;;;;;3.03;2.20;;;;;;;14.33;56.41;100826.81;10289031;28;20094;-55
2021/05/28 23:14:21;;;;;;;4.00;2.50;;;;;;;14.28;56.70;100821.84;10283872;28;20050;-59
2021/05/28 23:19:23;;;;;;;2.30;1.80;;;;;;;14.20;57.32;100827.03;10290532;28;20638;-59
2021/05/28 23:24:24;;;;;;;2.40;2.20;;;;;;;14.23;58.33;100833.94;10287114;28;20102;-57
2021/05/28 23:29:26;;;;;;;3.45;2.42;;;;;;;14.02;57.35;100821.44;10269924;28;20840;-57
2021/05/28 23:34:27;;;;;;;3.75;2.80;;;;;;;13.98;57.56;100825.34;10289929;28;20074;-60